sensor_id;sensor_type;location;lat;lon;timestamp;pressure;altitude;pressure_sealevel;temperature;humidity
49529;BME280;35423;37.320;-121.762;2023-03-04T00:01:08;99834.56;;;33.65;10.14
49529;BME280;35423;37.320;-121.762;2023-03-04T00:03:33;99833.41;;;33.63;10.32
49529;BME280;35423;37.320;-121.762;2023-03-04T00:06:02;99825.94;;;33.71;10.47
49529;BME280;35423;37.320;-121.762;2023-03-04T00:08:29;99822.70;;;33.47;10.62
49529;BME280;35423;37.320;-121.762;2023-03-04T00:10:54;99823.44;;;33.27;10.82
49529;BME280;35423;37.320;-121.762;2023-03-04T00:13:20;99827.80;;;33.31;11.02
49529;BME280;35423;37.320;-121.762;2023-03-04T00:15:47;99826.82;;;32.84;11.25
49529;BME280;35423;37.320;-121.762;2023-03-04T00:18:12;99831.33;;;32.40;11.41
49529;BME280;35423;37.320;-121.762;2023-03-04T00:20:39;99834.74;;;32.32;11.72
49529;BME280;35423;37.320;-121.762;2023-03-04T00:23:04;99832.49;;;32.14;11.98
49529;BME280;35423;37.320;-121.762;2023-03-04T00:25:30;99825.29;;;31.90;12.07
49529;BME280;35423;37.320;-121.762;2023-03-04T00:27:58;99822.46;;;32.17;12.03
49529;BME280;35423;37.320;-121.762;2023-03-04T00:30:24;99824.83;;;32.02;12.26
49529;BME280;35423;37.320;-121.762;2023-03-04T00:32:50;99830.77;;;31.72;12.29
49529;BME280;35423;37.320;-121.762;2023-03-04T00:35:17;99825.32;;;31.45;12.37
49529;BME280;35423;37.320;-121.762;2023-03-04T00:37:43;99822.57;;;31.31;12.62
49529;BME280;35423;37.320;-121.762;2023-03-04T00:40:10;99824.84;;;31.27;12.69
49529;BME280;35423;37.320;-121.762;2023-03-04T00:42:37;99829.91;;;30.53;12.99
49529;BME280;35423;37.320;-121.762;2023-03-04T00:45:06;99830.34;;;30.29;13.28
49529;BME280;35423;37.320;-121.762;2023-03-04T00:47:30;99833.89;;;30.01;13.56
49529;BME280;35423;37.320;-121.762;2023-03-04T00:50:02;99832.07;;;29.56;13.76
49529;BME280;35423;37.320;-121.762;2023-03-04T00:52:29;99834.07;;;29.27;14.06
49529;BME280;35423;37.320;-121.762;2023-03-04T00:54:53;99832.24;;;29.15;14.30
49529;BME280;35423;37.320;-121.762;2023-03-04T00:57:20;99831.86;;;28.85;14.56
49529;BME280;35423;37.320;-121.762;2023-03-04T00:59:52;99831.88;;;28.63;14.71
49529;BME280;35423;37.320;-121.762;2023-03-04T01:02:19;99836.63;;;28.38;14.85
49529;BME280;35423;37.320;-121.762;2023-03-04T01:04:45;99840.56;;;28.38;14.96
49529;BME280;35423;37.320;-121.762;2023-03-04T01:07:12;99839.69;;;28.21;14.98
49529;BME280;35423;37.320;-121.762;2023-03-04T01:09:37;99848.37;;;28.05;15.09
49529;BME280;35423;37.320;-121.762;2023-03-04T01:12:03;99852.32;;;27.92;15.06
49529;BME280;35423;37.320;-121.762;2023-03-04T01:14:32;99859.48;;;27.71;15.28
49529;BME280;35423;37.320;-121.762;2023-03-04T01:16:57;99855.11;;;27.44;15.75
49529;BME280;35423;37.320;-121.762;2023-03-04T01:19:23;99854.29;;;27.39;16.16
49529;BME280;35423;37.320;-121.762;2023-03-04T01:21:51;99853.98;;;26.89;16.36
49529;BME280;35423;37.320;-121.762;2023-03-04T01:24:17;99855.96;;;26.92;16.62
49529;BME280;35423;37.320;-121.762;2023-03-04T01:26:45;99860.18;;;26.67;17.00
49529;BME280;35423;37.320;-121.762;2023-03-04T01:29:11;99859.83;;;26.43;17.34
49529;BME280;35423;37.320;-121.762;2023-03-04T01:31:35;99858.43;;;26.39;17.57
49529;BME280;35423;37.320;-121.762;2023-03-04T01:34:00;99861.47;;;26.15;17.73
49529;BME280;35423;37.320;-121.762;2023-03-04T01:36:26;99862.89;;;25.74;17.92
49529;BME280;35423;37.320;-121.762;2023-03-04T01:38:52;99866.01;;;25.82;18.07
49529;BME280;35423;37.320;-121.762;2023-03-04T01:41:22;99865.86;;;25.89;18.11
49529;BME280;35423;37.320;-121.762;2023-03-04T01:43:43;99864.41;;;25.76;18.15
49529;BME280;35423;37.320;-121.762;2023-03-04T01:46:14;99863.22;;;25.38;18.22
49529;BME280;35423;37.320;-121.762;2023-03-04T01:48:36;99856.52;;;25.50;18.32
49529;BME280;35423;37.320;-121.762;2023-03-04T01:51:04;99853.30;;;25.36;18.36
49529;BME280;35423;37.320;-121.762;2023-03-04T01:53:28;99857.17;;;25.46;18.46
49529;BME280;35423;37.320;-121.762;2023-03-04T01:56:01;99862.72;;;25.07;18.61
49529;BME280;35423;37.320;-121.762;2023-03-04T01:58:28;99865.66;;;24.95;18.71
49529;BME280;35423;37.320;-121.762;2023-03-04T02:00:50;99866.34;;;25.11;18.83
49529;BME280;35423;37.320;-121.762;2023-03-04T02:03:23;99869.93;;;24.77;18.90
49529;BME280;35423;37.320;-121.762;2023-03-04T02:05:51;99872.28;;;24.91;19.02
49529;BME280;35423;37.320;-121.762;2023-03-04T02:08:20;99877.10;;;24.98;19.11
49529;BME280;35423;37.320;-121.762;2023-03-04T02:10:48;99870.25;;;24.85;19.06
49529;BME280;35423;37.320;-121.762;2023-03-04T02:13:15;99871.93;;;24.47;19.03
49529;BME280;35423;37.320;-121.762;2023-03-04T02:15:43;99878.22;;;24.56;19.12
49529;BME280;35423;37.320;-121.762;2023-03-04T02:18:15;99876.37;;;24.51;19.10
49529;BME280;35423;37.320;-121.762;2023-03-04T02:20:43;99863.69;;;24.41;19.08
49529;BME280;35423;37.320;-121.762;2023-03-04T02:23:10;99865.67;;;24.37;19.07
49529;BME280;35423;37.320;-121.762;2023-03-04T02:25:36;99889.47;;;24.29;19.13
49529;BME280;35423;37.320;-121.762;2023-03-04T02:28:01;99906.67;;;24.23;19.27
49529;BME280;35423;37.320;-121.762;2023-03-04T02:30:28;99910.74;;;24.14;19.28
49529;BME280;35423;37.320;-121.762;2023-03-04T02:33:02;99906.46;;;24.06;19.34
49529;BME280;35423;37.320;-121.762;2023-03-04T02:35:29;99903.97;;;23.98;19.41
49529;BME280;35423;37.320;-121.762;2023-03-04T02:37:57;99909.48;;;24.16;19.44
49529;BME280;35423;37.320;-121.762;2023-03-04T02:40:29;99911.24;;;24.07;19.57
49529;BME280;35423;37.320;-121.762;2023-03-04T02:42:46;99903.17;;;23.79;19.55
49529;BME280;35423;37.320;-121.762;2023-03-04T02:47:46;99908.02;;;23.60;19.44
49529;BME280;35423;37.320;-121.762;2023-03-04T02:50:15;99905.58;;;23.95;19.34
49529;BME280;35423;37.320;-121.762;2023-03-04T02:52:42;99898.64;;;23.80;19.42
49529;BME280;35423;37.320;-121.762;2023-03-04T02:55:09;99892.22;;;23.70;19.41
49529;BME280;35423;37.320;-121.762;2023-03-04T02:57:33;99893.72;;;23.55;19.61
49529;BME280;35423;37.320;-121.762;2023-03-04T03:00:03;99895.64;;;23.43;19.66
49529;BME280;35423;37.320;-121.762;2023-03-04T03:02:38;99896.06;;;23.55;19.61
49529;BME280;35423;37.320;-121.762;2023-03-04T03:05:00;99899.37;;;23.40;19.56
49529;BME280;35423;37.320;-121.762;2023-03-04T03:07:26;99903.23;;;23.03;19.64
49529;BME280;35423;37.320;-121.762;2023-03-04T03:09:52;99899.45;;;23.15;19.66
49529;BME280;35423;37.320;-121.762;2023-03-04T03:12:18;99907.63;;;23.00;19.77
49529;BME280;35423;37.320;-121.762;2023-03-04T03:14:53;99920.90;;;22.85;19.83
49529;BME280;35423;37.320;-121.762;2023-03-04T03:17:21;99921.51;;;22.72;19.92
49529;BME280;35423;37.320;-121.762;2023-03-04T03:19:46;99919.92;;;22.65;19.95
49529;BME280;35423;37.320;-121.762;2023-03-04T03:22:12;99919.67;;;22.86;20.01
49529;BME280;35423;37.320;-121.762;2023-03-04T03:24:38;99919.27;;;22.54;20.12
49529;BME280;35423;37.320;-121.762;2023-03-04T03:27:04;99916.64;;;22.82;20.06
49529;BME280;35423;37.320;-121.762;2023-03-04T03:29:31;99917.64;;;22.50;19.93
49529;BME280;35423;37.320;-121.762;2023-03-04T03:31:56;99920.77;;;22.68;19.99
49529;BME280;35423;37.320;-121.762;2023-03-04T03:34:30;99928.76;;;22.36;20.06
49529;BME280;35423;37.320;-121.762;2023-03-04T03:37:01;99925.67;;;22.34;20.01
49529;BME280;35423;37.320;-121.762;2023-03-04T03:39:31;99926.75;;;22.08;20.01
49529;BME280;35423;37.320;-121.762;2023-03-04T03:41:59;99922.29;;;22.54;19.95
49529;BME280;35423;37.320;-121.762;2023-03-04T03:44:27;99919.46;;;22.20;19.91
49529;BME280;35423;37.320;-121.762;2023-03-04T03:46:56;99923.74;;;22.38;19.94
49529;BME280;35423;37.320;-121.762;2023-03-04T03:49:25;99926.98;;;22.33;19.94
49529;BME280;35423;37.320;-121.762;2023-03-04T03:51:51;99934.31;;;22.20;19.83
49529;BME280;35423;37.320;-121.762;2023-03-04T03:54:19;99936.82;;;22.08;19.70
49529;BME280;35423;37.320;-121.762;2023-03-04T03:56:43;99931.88;;;21.97;19.81
49529;BME280;35423;37.320;-121.762;2023-03-04T03:59:14;99926.53;;;22.10;19.76
49529;BME280;35423;37.320;-121.762;2023-03-04T04:01:41;99928.57;;;21.80;19.68
49529;BME280;35423;37.320;-121.762;2023-03-04T04:04:07;99931.77;;;21.68;19.60
49529;BME280;35423;37.320;-121.762;2023-03-04T04:06:34;99938.45;;;21.64;19.59
49529;BME280;35423;37.320;-121.762;2023-03-04T04:09:06;99936.81;;;21.76;19.54
49529;BME280;35423;37.320;-121.762;2023-03-04T04:11:32;99940.07;;;21.39;19.57
49529;BME280;35423;37.320;-121.762;2023-03-04T04:14:07;99940.52;;;21.48;19.41
49529;BME280;35423;37.320;-121.762;2023-03-04T04:16:31;99933.27;;;21.33;19.41
49529;BME280;35423;37.320;-121.762;2023-03-04T04:18:59;99929.16;;;20.97;19.46
49529;BME280;35423;37.320;-121.762;2023-03-04T04:21:28;99929.48;;;21.02;19.53
49529;BME280;35423;37.320;-121.762;2023-03-04T04:23:55;99928.67;;;21.13;19.67
49529;BME280;35423;37.320;-121.762;2023-03-04T04:26:39;99923.14;;;21.06;19.78
49529;BME280;35423;37.320;-121.762;2023-03-04T04:28:52;99924.96;;;20.71;19.96
49529;BME280;35423;37.320;-121.762;2023-03-04T04:31:15;99924.66;;;20.88;20.13
49529;BME280;35423;37.320;-121.762;2023-03-04T04:33:46;99923.75;;;20.80;20.25
49529;BME280;35423;37.320;-121.762;2023-03-04T04:36:09;99924.55;;;20.71;20.33
49529;BME280;35423;37.320;-121.762;2023-03-04T04:38:33;99921.75;;;20.64;20.45
49529;BME280;35423;37.320;-121.762;2023-03-04T04:41:10;99916.24;;;20.83;20.52
49529;BME280;35423;37.320;-121.762;2023-03-04T04:43:29;99915.14;;;20.71;20.66
49529;BME280;35423;37.320;-121.762;2023-03-04T04:45:58;99909.28;;;20.34;20.75
49529;BME280;35423;37.320;-121.762;2023-03-04T04:48:21;99905.87;;;20.54;20.77
49529;BME280;35423;37.320;-121.762;2023-03-04T04:50:52;99900.74;;;20.41;20.97
49529;BME280;35423;37.320;-121.762;2023-03-04T04:53:15;99903.35;;;20.33;21.08
49529;BME280;35423;37.320;-121.762;2023-03-04T04:55:37;99898.80;;;20.20;21.21
49529;BME280;35423;37.320;-121.762;2023-03-04T04:58:05;99894.79;;;19.89;21.20
49529;BME280;35423;37.320;-121.762;2023-03-04T05:00:29;99893.48;;;19.80;21.30
49529;BME280;35423;37.320;-121.762;2023-03-04T05:02:56;99889.85;;;20.03;21.40
49529;BME280;35423;37.320;-121.762;2023-03-04T05:05:22;99888.38;;;20.21;21.48
49529;BME280;35423;37.320;-121.762;2023-03-04T05:07:49;99882.84;;;20.09;21.63
49529;BME280;35423;37.320;-121.762;2023-03-04T05:10:15;99879.43;;;20.03;21.75
49529;BME280;35423;37.320;-121.762;2023-03-04T05:12:39;99878.84;;;19.99;21.82
49529;BME280;35423;37.320;-121.762;2023-03-04T05:15:12;99880.08;;;19.72;21.85
49529;BME280;35423;37.320;-121.762;2023-03-04T05:17:35;99874.96;;;19.88;22.03
49529;BME280;35423;37.320;-121.762;2023-03-04T05:19:59;99876.29;;;19.83;22.13
49529;BME280;35423;37.320;-121.762;2023-03-04T05:22:27;99879.70;;;19.79;22.15
49529;BME280;35423;37.320;-121.762;2023-03-04T05:24:57;99879.88;;;19.72;22.17
49529;BME280;35423;37.320;-121.762;2023-03-04T05:27:26;99880.70;;;19.63;22.28
49529;BME280;35423;37.320;-121.762;2023-03-04T05:29:49;99877.85;;;19.56;22.34
49529;BME280;35423;37.320;-121.762;2023-03-04T05:32:25;99879.08;;;19.97;22.44
49529;BME280;35423;37.320;-121.762;2023-03-04T05:34:53;99882.25;;;19.67;22.50
49529;BME280;35423;37.320;-121.762;2023-03-04T05:37:21;99874.77;;;19.32;22.52
49529;BME280;35423;37.320;-121.762;2023-03-04T05:39:46;99868.58;;;19.46;22.59
49529;BME280;35423;37.320;-121.762;2023-03-04T05:42:10;99874.94;;;19.62;22.72
49529;BME280;35423;37.320;-121.762;2023-03-04T05:44:37;99879.55;;;19.10;22.72
49529;BME280;35423;37.320;-121.762;2023-03-04T05:47:04;99877.75;;;19.03;22.79
49529;BME280;35423;37.320;-121.762;2023-03-04T05:49:30;99875.24;;;19.22;22.82
49529;BME280;35423;37.320;-121.762;2023-03-04T05:51:54;99877.65;;;19.38;22.94
49529;BME280;35423;37.320;-121.762;2023-03-04T05:54:23;99880.49;;;18.83;23.00
49529;BME280;35423;37.320;-121.762;2023-03-04T05:56:54;99884.93;;;19.03;23.09
49529;BME280;35423;37.320;-121.762;2023-03-04T05:59:19;99888.70;;;19.18;23.04
49529;BME280;35423;37.320;-121.762;2023-03-04T06:01:48;99895.72;;;19.14;23.02
49529;BME280;35423;37.320;-121.762;2023-03-04T06:04:15;99899.55;;;18.87;23.03
49529;BME280;35423;37.320;-121.762;2023-03-04T06:06:47;99903.06;;;18.99;23.12
49529;BME280;35423;37.320;-121.762;2023-03-04T06:09:14;99903.48;;;18.92;23.22
49529;BME280;35423;37.320;-121.762;2023-03-04T06:11:45;99899.00;;;18.86;23.34
49529;BME280;35423;37.320;-121.762;2023-03-04T06:14:13;99900.46;;;18.83;23.43
49529;BME280;35423;37.320;-121.762;2023-03-04T06:16:37;99900.96;;;18.79;23.48
49529;BME280;35423;37.320;-121.762;2023-03-04T06:19:14;99898.39;;;18.55;23.55
49529;BME280;35423;37.320;-121.762;2023-03-04T06:21:36;99896.79;;;18.92;23.59
49529;BME280;35423;37.320;-121.762;2023-03-04T06:24:05;99896.74;;;18.87;23.58
49529;BME280;35423;37.320;-121.762;2023-03-04T06:26:31;99895.83;;;18.58;23.63
49529;BME280;35423;37.320;-121.762;2023-03-04T06:29:00;99897.92;;;18.57;23.68
49529;BME280;35423;37.320;-121.762;2023-03-04T06:31:26;99897.38;;;18.51;23.74
49529;BME280;35423;37.320;-121.762;2023-03-04T06:33:54;99894.80;;;18.46;23.78
49529;BME280;35423;37.320;-121.762;2023-03-04T06:36:27;99890.88;;;18.44;23.86
49529;BME280;35423;37.320;-121.762;2023-03-04T06:38:47;99880.46;;;18.42;23.88
49529;BME280;35423;37.320;-121.762;2023-03-04T06:41:15;99876.02;;;18.39;23.94
49529;BME280;35423;37.320;-121.762;2023-03-04T06:43:43;99870.42;;;18.38;23.94
49529;BME280;35423;37.320;-121.762;2023-03-04T06:46:11;99860.12;;;18.60;24.01
49529;BME280;35423;37.320;-121.762;2023-03-04T06:48:36;99856.85;;;18.36;24.06
49529;BME280;35423;37.320;-121.762;2023-03-04T06:51:13;99858.01;;;18.31;24.11
49529;BME280;35423;37.320;-121.762;2023-03-04T06:53:34;99856.42;;;18.28;24.21
49529;BME280;35423;37.320;-121.762;2023-03-04T06:56:02;99854.22;;;18.47;24.21
49529;BME280;35423;37.320;-121.762;2023-03-04T06:58:29;99847.03;;;18.15;24.35
49529;BME280;35423;37.320;-121.762;2023-03-04T07:01:10;99840.09;;;18.29;24.46
49529;BME280;35423;37.320;-121.762;2023-03-04T07:03:25;99835.85;;;18.26;24.53
49529;BME280;35423;37.320;-121.762;2023-03-04T07:05:50;99834.49;;;18.15;24.58
49529;BME280;35423;37.320;-121.762;2023-03-04T07:08:17;99831.85;;;18.06;24.62
49529;BME280;35423;37.320;-121.762;2023-03-04T07:10:47;99833.96;;;17.98;24.69
49529;BME280;35423;37.320;-121.762;2023-03-04T07:13:12;99843.89;;;17.92;24.73
49529;BME280;35423;37.320;-121.762;2023-03-04T07:15:37;99848.07;;;18.16;24.76
49529;BME280;35423;37.320;-121.762;2023-03-04T07:18:04;99848.36;;;18.14;24.78
49529;BME280;35423;37.320;-121.762;2023-03-04T07:20:33;99848.43;;;18.12;24.86
49529;BME280;35423;37.320;-121.762;2023-03-04T07:22:58;99851.27;;;18.03;24.98
49529;BME280;35423;37.320;-121.762;2023-03-04T07:25:24;99844.20;;;17.97;25.02
49529;BME280;35423;37.320;-121.762;2023-03-04T07:27:50;99843.81;;;17.95;24.97
49529;BME280;35423;37.320;-121.762;2023-03-04T07:30:18;99850.97;;;17.94;25.01
49529;BME280;35423;37.320;-121.762;2023-03-04T07:32:48;99850.74;;;17.66;24.97
49529;BME280;35423;37.320;-121.762;2023-03-04T07:35:20;99851.88;;;17.89;24.86
49529;BME280;35423;37.320;-121.762;2023-03-04T07:37:53;99849.07;;;17.82;24.74
49529;BME280;35423;37.320;-121.762;2023-03-04T07:40:19;99848.68;;;17.78;24.68
49529;BME280;35423;37.320;-121.762;2023-03-04T07:42:55;99844.19;;;17.46;24.56
49529;BME280;35423;37.320;-121.762;2023-03-04T07:45:12;99836.89;;;17.69;24.52
49529;BME280;35423;37.320;-121.762;2023-03-04T07:47:41;99828.39;;;17.66;24.63
49529;BME280;35423;37.320;-121.762;2023-03-04T07:50:11;99820.06;;;17.62;24.70
49529;BME280;35423;37.320;-121.762;2023-03-04T07:52:38;99812.72;;;17.59;24.72
49529;BME280;35423;37.320;-121.762;2023-03-04T07:55:14;99819.49;;;17.30;24.73
49529;BME280;35423;37.320;-121.762;2023-03-04T07:57:47;99820.50;;;17.48;24.78
49529;BME280;35423;37.320;-121.762;2023-03-04T08:00:14;99821.70;;;17.43;24.78
49529;BME280;35423;37.320;-121.762;2023-03-04T08:02:37;99825.11;;;17.41;24.79
49529;BME280;35423;37.320;-121.762;2023-03-04T08:05:09;99820.69;;;17.39;24.88
49529;BME280;35423;37.320;-121.762;2023-03-04T08:07:37;99815.91;;;17.29;24.90
49529;BME280;35423;37.320;-121.762;2023-03-04T08:10:01;99810.14;;;17.18;24.99
49529;BME280;35423;37.320;-121.762;2023-03-04T08:12:29;99805.91;;;17.17;25.15
49529;BME280;35423;37.320;-121.762;2023-03-04T08:14:54;99804.16;;;17.61;25.21
49529;BME280;35423;37.320;-121.762;2023-03-04T08:17:19;99805.50;;;17.57;25.27
49529;BME280;35423;37.320;-121.762;2023-03-04T08:19:49;99811.84;;;17.09;25.30
49529;BME280;35423;37.320;-121.762;2023-03-04T08:22:11;99815.45;;;17.05;25.29
49529;BME280;35423;37.320;-121.762;2023-03-04T08:24:37;99814.53;;;17.00;25.27
49529;BME280;35423;37.320;-121.762;2023-03-04T08:27:05;99812.88;;;17.20;25.26
49529;BME280;35423;37.320;-121.762;2023-03-04T08:29:31;99819.04;;;17.34;25.30
49529;BME280;35423;37.320;-121.762;2023-03-04T08:31:57;99822.22;;;16.87;25.34
49529;BME280;35423;37.320;-121.762;2023-03-04T08:34:26;99821.87;;;16.82;25.27
49529;BME280;35423;37.320;-121.762;2023-03-04T08:36:48;99817.13;;;16.97;25.07
49529;BME280;35423;37.320;-121.762;2023-03-04T08:39:17;99812.77;;;16.84;25.08
49529;BME280;35423;37.320;-121.762;2023-03-04T08:41:42;99804.54;;;16.80;25.14
49529;BME280;35423;37.320;-121.762;2023-03-04T08:44:09;99801.33;;;16.96;25.22
49529;BME280;35423;37.320;-121.762;2023-03-04T08:46:38;99809.25;;;16.48;25.28
49529;BME280;35423;37.320;-121.762;2023-03-04T08:49:03;99810.47;;;16.88;25.38
49529;BME280;35423;37.320;-121.762;2023-03-04T08:51:31;99804.98;;;16.66;25.27
49529;BME280;35423;37.320;-121.762;2023-03-04T08:53:54;99801.89;;;16.60;25.27
49529;BME280;35423;37.320;-121.762;2023-03-04T08:56:20;99799.15;;;16.79;25.43
49529;BME280;35423;37.320;-121.762;2023-03-04T08:58:46;99789.81;;;16.55;25.41
49529;BME280;35423;37.320;-121.762;2023-03-04T09:01:12;99782.50;;;16.62;25.53
49529;BME280;35423;37.320;-121.762;2023-03-04T09:03:39;99783.94;;;16.58;25.58
49529;BME280;35423;37.320;-121.762;2023-03-04T09:06:10;99790.57;;;16.20;25.89
49529;BME280;35423;37.320;-121.762;2023-03-04T09:08:33;99793.75;;;16.32;26.00
49529;BME280;35423;37.320;-121.762;2023-03-04T09:10:57;99805.93;;;16.02;26.10
49529;BME280;35423;37.320;-121.762;2023-03-04T09:13:27;99804.01;;;16.20;26.23
49529;BME280;35423;37.320;-121.762;2023-03-04T09:15:52;99797.34;;;15.97;26.25
49529;BME280;35423;37.320;-121.762;2023-03-04T09:18:19;99790.99;;;16.13;26.41
49529;BME280;35423;37.320;-121.762;2023-03-04T09:20:44;99793.14;;;16.37;26.52
49529;BME280;35423;37.320;-121.762;2023-03-04T09:23:11;99789.19;;;16.10;26.55
49529;BME280;35423;37.320;-121.762;2023-03-04T09:25:37;99786.55;;;16.10;26.55
49529;BME280;35423;37.320;-121.762;2023-03-04T09:28:09;99794.79;;;16.12;26.55
49529;BME280;35423;37.320;-121.762;2023-03-04T09:30:34;99794.91;;;16.39;26.56
49529;BME280;35423;37.320;-121.762;2023-03-04T09:35:35;99790.59;;;16.14;26.48
49529;BME280;35423;37.320;-121.762;2023-03-04T09:37:51;99785.82;;;16.14;26.33
49529;BME280;35423;37.320;-121.762;2023-03-04T09:40:19;99778.12;;;16.37;26.37
49529;BME280;35423;37.320;-121.762;2023-03-04T09:42:45;99773.05;;;16.34;26.42
49529;BME280;35423;37.320;-121.762;2023-03-04T09:45:10;99779.11;;;16.27;26.48
49529;BME280;35423;37.320;-121.762;2023-03-04T09:47:34;99784.77;;;15.73;26.36
49529;BME280;35423;37.320;-121.762;2023-03-04T09:50:03;99773.71;;;15.91;26.28
49529;BME280;35423;37.320;-121.762;2023-03-04T09:52:38;99754.09;;;16.36;26.28
49529;BME280;35423;37.320;-121.762;2023-03-04T09:55:02;99750.11;;;16.09;26.28
49529;BME280;35423;37.320;-121.762;2023-03-04T09:57:26;99750.91;;;16.05;26.34
49529;BME280;35423;37.320;-121.762;2023-03-04T09:59:52;99748.84;;;15.80;26.36
49529;BME280;35423;37.320;-121.762;2023-03-04T10:02:19;99746.21;;;15.81;26.20
49529;BME280;35423;37.320;-121.762;2023-03-04T10:04:48;99742.46;;;16.28;26.30
49529;BME280;35423;37.320;-121.762;2023-03-04T10:07:17;99735.99;;;15.77;26.30
49529;BME280;35423;37.320;-121.762;2023-03-04T10:09:45;99725.47;;;16.01;26.26
49529;BME280;35423;37.320;-121.762;2023-03-04T10:12:10;99711.88;;;16.13;26.39
49529;BME280;35423;37.320;-121.762;2023-03-04T10:14:37;99703.42;;;16.13;26.48
49529;BME280;35423;37.320;-121.762;2023-03-04T10:17:04;99698.83;;;15.64;26.52
49529;BME280;35423;37.320;-121.762;2023-03-04T10:19:30;99700.16;;;16.13;26.53
49529;BME280;35423;37.320;-121.762;2023-03-04T10:21:58;99702.07;;;16.11;26.59
49529;BME280;35423;37.320;-121.762;2023-03-04T10:24:28;99703.37;;;16.09;26.63
49529;BME280;35423;37.320;-121.762;2023-03-04T10:26:59;99702.53;;;15.86;26.63
49529;BME280;35423;37.320;-121.762;2023-03-04T10:29:22;99702.25;;;15.82;26.66
49529;BME280;35423;37.320;-121.762;2023-03-04T10:31:48;99696.60;;;15.97;26.79
49529;BME280;35423;37.320;-121.762;2023-03-04T10:34:16;99694.31;;;15.71;26.91
49529;BME280;35423;37.320;-121.762;2023-03-04T10:36:52;99690.22;;;15.68;26.99
49529;BME280;35423;37.320;-121.762;2023-03-04T10:39:09;99689.00;;;15.65;27.03
49529;BME280;35423;37.320;-121.762;2023-03-04T10:41:31;99688.57;;;15.83;27.08
49529;BME280;35423;37.320;-121.762;2023-03-04T10:44:02;99682.06;;;15.81;27.13
49529;BME280;35423;37.320;-121.762;2023-03-04T10:46:24;99680.77;;;15.57;27.09
49529;BME280;35423;37.320;-121.762;2023-03-04T10:48:49;99695.46;;;15.77;27.12
49529;BME280;35423;37.320;-121.762;2023-03-04T10:51:19;99688.65;;;15.75;27.11
49529;BME280;35423;37.320;-121.762;2023-03-04T10:53:43;99675.00;;;15.66;27.21
49529;BME280;35423;37.320;-121.762;2023-03-04T10:58:35;99668.45;;;15.58;27.33
49529;BME280;35423;37.320;-121.762;2023-03-04T11:01:04;99658.53;;;15.61;27.23
49529;BME280;35423;37.320;-121.762;2023-03-04T11:03:32;99652.07;;;15.48;27.33
49529;BME280;35423;37.320;-121.762;2023-03-04T11:08:23;99667.47;;;15.39;27.50
49529;BME280;35423;37.320;-121.762;2023-03-04T11:10:50;99673.33;;;15.37;27.47
49529;BME280;35423;37.320;-121.762;2023-03-04T11:13:18;99673.83;;;15.34;27.47
49529;BME280;35423;37.320;-121.762;2023-03-04T11:15:50;99675.62;;;15.29;27.35
49529;BME280;35423;37.320;-121.762;2023-03-04T11:18:13;99682.98;;;15.24;27.30
49529;BME280;35423;37.320;-121.762;2023-03-04T11:20:40;99695.21;;;15.18;27.29
49529;BME280;35423;37.320;-121.762;2023-03-04T11:23:05;99702.62;;;15.42;27.29
49529;BME280;35423;37.320;-121.762;2023-03-04T11:25:31;99705.54;;;15.13;27.31
49529;BME280;35423;37.320;-121.762;2023-03-04T11:27:55;99699.08;;;15.08;27.28
49529;BME280;35423;37.320;-121.762;2023-03-04T11:30:32;99687.47;;;15.08;27.21
49529;BME280;35423;37.320;-121.762;2023-03-04T11:32:48;99682.87;;;15.06;27.21
49529;BME280;35423;37.320;-121.762;2023-03-04T11:35:20;99678.76;;;15.28;27.27
49529;BME280;35423;37.320;-121.762;2023-03-04T11:37:46;99681.57;;;14.96;27.28
49529;BME280;35423;37.320;-121.762;2023-03-04T11:40:11;99683.80;;;14.90;27.32
49529;BME280;35423;37.320;-121.762;2023-03-04T11:42:38;99681.68;;;14.89;27.38
49529;BME280;35423;37.320;-121.762;2023-03-04T11:45:00;99672.85;;;15.17;27.41
49529;BME280;35423;37.320;-121.762;2023-03-04T11:47:41;99662.86;;;15.21;27.32
49529;BME280;35423;37.320;-121.762;2023-03-04T11:52:38;99659.30;;;15.21;27.35
49529;BME280;35423;37.320;-121.762;2023-03-04T11:57:31;99672.23;;;14.91;27.42
49529;BME280;35423;37.320;-121.762;2023-03-04T11:59:56;99675.61;;;14.98;27.34
49529;BME280;35423;37.320;-121.762;2023-03-04T12:02:20;99675.37;;;15.28;27.28
49529;BME280;35423;37.320;-121.762;2023-03-04T12:04:55;99677.76;;;15.00;27.34
49529;BME280;35423;37.320;-121.762;2023-03-04T12:07:23;99670.31;;;14.99;27.30
49529;BME280;35423;37.320;-121.762;2023-03-04T12:09:45;99660.19;;;15.43;27.31
49529;BME280;35423;37.320;-121.762;2023-03-04T12:14:36;99657.45;;;14.91;27.29
49529;BME280;35423;37.320;-121.762;2023-03-04T12:17:15;99678.80;;;15.17;27.33
49529;BME280;35423;37.320;-121.762;2023-03-04T12:19:36;99687.60;;;14.88;27.34
49529;BME280;35423;37.320;-121.762;2023-03-04T12:22:08;99684.43;;;14.93;27.30
49529;BME280;35423;37.320;-121.762;2023-03-04T12:24:31;99688.49;;;15.43;27.36
49529;BME280;35423;37.320;-121.762;2023-03-04T12:26:50;99686.64;;;14.96;27.34
49529;BME280;35423;37.320;-121.762;2023-03-04T12:29:14;99679.52;;;14.99;27.29
49529;BME280;35423;37.320;-121.762;2023-03-04T12:31:47;99677.91;;;14.97;27.32
49529;BME280;35423;37.320;-121.762;2023-03-04T12:36:42;99661.93;;;14.96;27.35
49529;BME280;35423;37.320;-121.762;2023-03-04T12:39:17;99657.70;;;15.50;27.29
49529;BME280;35423;37.320;-121.762;2023-03-04T12:41:42;99655.77;;;15.25;27.36
49529;BME280;35423;37.320;-121.762;2023-03-04T12:44:11;99661.88;;;14.99;27.42
49529;BME280;35423;37.320;-121.762;2023-03-04T12:46:39;99669.78;;;14.99;27.49
49529;BME280;35423;37.320;-121.762;2023-03-04T12:51:29;99675.85;;;15.04;27.39